Time;durP1;ratioP1;P1;durP2;ratioP2;P2;SDS_P1;SDS_P2;PMS_P1;PMS_P2;Temp;Humidity;BMP_temperature;BMP_pressure;BME280_temperature;BME280_humidity;BME280_pressure;Samples;Min_cycle;Max_cycle;Signal;HPM_P1;HPM_P2
2022/07/25 04:44:06;;;;;;;22.38;19.98;;;;;;;;;;6048619;23;20108;-82
2022/07/25 04:46:33;;;;;;;26.35;20.00;;;;;;;;;;4933959;29;20160;-84
2022/07/25 04:48:59;;;;;;;23.85;19.67;;;;;;;;;;4920043;29;20035;-83
2022/07/25 04:51:25;;;;;;;22.58;19.20;;;;;;;;;;4919250;29;20036;-81
2022/07/25 04:53:51;;;;;;;24.27;20.65;;;;;;;;;;4918990;29;20027;-81
2022/07/25 04:56:18;;;;;;;23.10;19.38;;;;;;;;;;4919266;29;20024;-81
2022/07/25 04:58:44;;;;;;;25.77;18.08;;;;;;;;;;4919345;29;20023;-81
2022/07/25 05:01:10;;;;;;;20.80;18.17;;;;;;;;;;4918807;29;20028;-80
2022/07/25 05:03:36;;;;;;;21.38;18.85;;;;;;;;;;4919243;29;20111;-81
2022/07/25 05:06:02;;;;;;;23.55;18.90;;;;;;;;;;4919137;29;20035;-82
2022/07/25 05:08:29;;;;;;;26.05;20.02;;;;;;;;;;4934740;29;20039;-81
2022/07/25 05:10:55;;;;;;;33.95;22.38;;;;;;;;;;4941348;29;20039;-82
2022/07/25 05:13:21;;;;;;;44.42;35.00;;;;;;;;;;4919401;29;20095;-83
2022/07/25 05:15:48;;;;;;;43.80;32.63;;;;;;;;;;4919461;29;20035;-81
2022/07/25 05:18:14;;;;;;;44.88;32.38;;;;;;;;;;4919439;29;20035;-82
2022/07/25 05:20:40;;;;;;;45.72;32.42;;;;;;;;;;4919457;29;20024;-80
2022/07/25 05:23:06;;;;;;;48.03;33.10;;;;;;;;;;4922533;29;20478;-82
2022/07/25 05:25:32;;;;;;;35.65;25.60;;;;;;;;;;4922546;29;20401;-81
2022/07/25 05:27:59;;;;;;;24.33;21.38;;;;;;;;;;4922352;29;20024;-82
2022/07/25 05:30:25;;;;;;;24.92;20.58;;;;;;;;;;4922273;29;20032;-84
2022/07/25 05:32:51;;;;;;;22.67;19.38;;;;;;;;;;4922284;29;20040;-83
2022/07/25 05:35:17;;;;;;;22.88;18.52;;;;;;;;;;4922267;29;20020;-82
2022/07/25 05:37:44;;;;;;;26.23;22.42;;;;;;;;;;4922271;29;20031;-81
2022/07/25 05:40:10;;;;;;;27.70;20.73;;;;;;;;;;4922168;29;20051;-82
2022/07/25 05:42:36;;;;;;;24.05;21.00;;;;;;;;;;4922012;29;20032;-81
2022/07/25 05:45:02;;;;;;;21.67;19.38;;;;;;;;;;4921760;29;20531;-82
2022/07/25 05:47:28;;;;;;;21.15;18.63;;;;;;;;;;4921734;29;20024;-81
2022/07/25 05:49:55;;;;;;;24.60;17.65;;;;;;;;;;4921822;29;20385;-81
2022/07/25 05:52:21;;;;;;;23.83;18.73;;;;;;;;;;4922012;29;20067;-82
2022/07/25 05:54:47;;;;;;;19.30;17.33;;;;;;;;;;4921817;29;20059;-81
2022/07/25 05:57:13;;;;;;;18.98;17.08;;;;;;;;;;4921654;29;20027;-82
2022/07/25 05:59:39;;;;;;;24.15;17.58;;;;;;;;;;4921915;29;20034;-80
2022/07/25 06:02:06;;;;;;;21.15;18.02;;;;;;;;;;4921773;29;20377;-80
2022/07/25 06:04:32;;;;;;;21.90;19.15;;;;;;;;;;4921607;29;20024;-80
2022/07/25 06:06:58;;;;;;;20.58;17.25;;;;;;;;;;4921687;29;20480;-82
2022/07/25 06:09:24;;;;;;;21.20;17.48;;;;;;;;;;4921282;29;20090;-81
2022/07/25 06:11:50;;;;;;;19.95;16.95;;;;;;;;;;4921741;29;20024;-81
2022/07/25 06:14:16;;;;;;;19.42;16.27;;;;;;;;;;4921614;29;20528;-81
2022/07/25 06:16:43;;;;;;;18.90;16.42;;;;;;;;;;4921551;29;20059;-80
2022/07/25 06:19:09;;;;;;;23.05;17.77;;;;;;;;;;4921460;29;20087;-82
2022/07/25 06:21:35;;;;;;;21.77;16.30;;;;;;;;;;4921434;29;20047;-80
2022/07/25 06:24:02;;;;;;;17.77;15.68;;;;;;;;;;4921244;29;20038;-82
2022/07/25 06:26:28;;;;;;;19.45;15.55;;;;;;;;;;4921454;29;20027;-84
2022/07/25 06:28:54;;;;;;;16.85;14.57;;;;;;;;;;4921232;29;20023;-82
2022/07/25 06:31:20;;;;;;;17.75;14.43;;;;;;;;;;4920724;29;20485;-82
2022/07/25 06:33:46;;;;;;;16.92;14.27;;;;;;;;;;4921128;29;20032;-81
2022/07/25 06:36:12;;;;;;;18.88;14.68;;;;;;;;;;4920924;29;20075;-81
2022/07/25 06:38:38;;;;;;;14.93;13.38;;;;;;;;;;4920574;29;20030;-81
2022/07/25 06:41:05;;;;;;;16.50;13.07;;;;;;;;;;4921044;29;20031;-82
2022/07/25 06:43:31;;;;;;;14.18;12.73;;;;;;;;;;4920896;29;20385;-81
2022/07/25 06:45:57;;;;;;;19.10;12.27;;;;;;;;;;4917146;29;20115;-81
2022/07/25 06:48:23;;;;;;;12.25;11.00;;;;;;;;;;4917672;29;20059;-82
2022/07/25 06:50:50;;;;;;;12.73;10.85;;;;;;;;;;4917606;29;20466;-83
2022/07/25 06:53:16;;;;;;;11.38;9.57;;;;;;;;;;4917345;29;20051;-81
2022/07/25 06:55:42;;;;;;;10.13;9.13;;;;;;;;;;4917479;29;20038;-81
2022/07/25 06:58:09;;;;;;;12.27;9.80;;;;;;;;;;4917433;29;20028;-80
2022/07/25 07:00:35;;;;;;;11.60;9.73;;;;;;;;;;4917649;29;20075;-81
2022/07/25 07:03:01;;;;;;;11.65;8.85;;;;;;;;;;4917317;29;20028;-81
2022/07/25 07:05:30;;;;;;;13.07;9.70;;;;;;;;;;4917051;29;20043;-82
2022/07/25 07:07:57;;;;;;;11.70;9.82;;;;;;;;;;4917417;29;20036;-82
2022/07/25 07:10:24;;;;;;;12.00;8.60;;;;;;;;;;4917148;29;20470;-81
2022/07/25 07:12:51;;;;;;;11.68;9.05;;;;;;;;;;4917078;29;20047;-81
2022/07/25 07:15:17;;;;;;;13.13;9.23;;;;;;;;;;4917154;29;20036;-82
2022/07/25 07:17:43;;;;;;;11.65;9.50;;;;;;;;;;4917189;29;20043;-81
2022/07/25 07:20:10;;;;;;;9.38;8.35;;;;;;;;;;4916929;29;20471;-81
2022/07/25 07:22:46;;;;;;;12.48;8.73;;;;;;;;;;4917029;29;20393;-80
2022/07/25 07:25:13;;;;;;;11.32;9.15;;;;;;;;;;4917049;29;20083;-80
2022/07/25 07:27:40;;;;;;;11.73;9.30;;;;;;;;;;4916816;29;20028;-81
2022/07/25 07:30:06;;;;;;;15.15;9.05;;;;;;;;;;4917366;29;20481;-82
2022/07/25 07:32:32;;;;;;;10.60;9.18;;;;;;;;;;4917047;29;20048;-83
2022/07/25 07:34:58;;;;;;;12.15;9.13;;;;;;;;;;4917229;29;20470;-84
2022/07/25 07:37:25;;;;;;;10.85;8.65;;;;;;;;;;4917385;29;20029;-85
2022/07/25 07:39:51;;;;;;;10.23;8.50;;;;;;;;;;4917247;29;20485;-82
2022/07/25 07:42:17;;;;;;;14.65;9.02;;;742.50;2278.40;;;;;;4917142;29;20379;-84
2022/07/25 07:44:42;;;;;;;11.23;8.68;;;742.50;2278.40;;;;;;4931966;29;20059;-83
2022/07/25 07:47:08;;;;;;;11.10;7.90;;;742.70;2252.80;;;;;;4932610;29;20509;-82
2022/07/25 07:49:34;;;;;;;11.15;8.02;;;742.80;2227.20;;;;;;4933258;29;20426;-83
2022/07/25 07:52:00;;;;;;;10.10;7.90;;;742.90;2201.60;;;;;;4936498;29;20028;-83
2022/07/25 07:57:10;;;;;;;10.05;7.93;;;743.30;2150.40;;;;;;4918397;29;20042;-84
2022/07/25 07:59:36;;;;;;;12.48;8.85;;;;;;;;;;4932432;29;20032;-84
2022/07/25 08:02:02;;;;;;;8.48;7.63;;;;;;;;;;4916872;29;20040;-84
2022/07/25 08:04:28;;;;;;;11.40;8.27;;;;;;;;;;4913301;29;20578;-85
2022/07/25 08:06:54;;;;;;;9.90;7.53;;;;;;;;;;4917033;29;20370;-84
2022/07/25 08:09:21;;;;;;;8.82;7.30;;;;;;;;;;4916886;29;20035;-83
2022/07/25 08:11:47;;;;;;;9.02;7.53;;;;;;;;;;4916440;29;20055;-83
2022/07/25 08:14:13;;;;;;;9.63;6.53;;;;;;;;;;4932637;29;20494;-82
2022/07/25 08:16:39;;;;;;;11.25;7.53;;;;;;;;;;4932432;29;20115;-84
2022/07/25 08:19:09;;;;;;;12.52;7.68;;;;;;;;;;4932508;29;20028;-81
2022/07/25 08:21:35;;;;;;;13.25;9.20;;;;;;;;;;4932261;29;20040;-84
2022/07/25 08:24:01;;;;;;;7.80;6.53;;;;;;;;;;4932264;29;20024;-84
2022/07/25 08:26:32;;;;;;;9.20;7.50;;;;;;;;;;4932674;29;20501;-83
2022/07/25 08:29:08;;;;;;;10.60;8.75;;;;;;;;;;4932664;29;20084;-82
2022/07/25 08:35:01;;;;;;;8.27;7.45;;;819.50;1766.40;;;;;;4914112;29;20451;-79
2022/07/25 08:37:28;;;;;;;7.78;6.65;;;819.50;1766.40;;;;;;4931474;29;20032;-82
2022/07/25 08:39:55;;;;;;;11.40;6.43;;;819.50;1766.40;;;;;;4931868;29;20032;-80
2022/07/25 08:42:21;;;;;;;9.70;5.72;;;819.60;1766.40;;;;;;4931230;29;20031;-81
2022/07/25 08:44:57;;;;;;;7.70;6.47;;;819.80;1740.80;;;;;;4931005;29;20048;-80
2022/07/25 08:47:39;;;;;;;;;;;;;;;;;;;;;
2022/07/25 08:50:10;;;;;;;8.40;6.30;;;;;;;;;;4917306;29;20028;-82
2022/07/25 08:52:40;;;;;;;7.80;5.68;;;844.90;1740.80;;;;;;4931773;29;20036;-82
2022/07/25 08:55:08;;;;;;;9.10;6.60;;;844.90;1740.80;;;;;;4931721;29;20028;-81
2022/07/25 08:57:39;;;;;;;8.73;7.30;;;844.90;1715.20;;;;;;4935021;29;20505;-85
2022/07/25 09:00:07;;;;;;;12.32;8.00;;;;;;;;;;4935755;29;20028;-83
2022/07/25 09:02:33;;;;;;;11.13;7.25;;;845.30;1715.20;;;;;;4935572;29;20490;-82
2022/07/25 09:04:59;;;;;;;8.65;7.38;;;;;;;;;;4934981;29;20028;-80
2022/07/25 09:07:32;;;;;;;11.98;7.00;;;;;;;;;;4935386;29;20382;-83
2022/07/25 09:09:58;;;;;;;7.93;6.40;;;;;;;;;;4935066;29;20032;-80
2022/07/25 09:12:26;;;;;;;9.25;6.85;;;;;;;;;;4918967;29;20017;-79
2022/07/25 09:14:53;;;;;;;8.93;6.15;;;;;;;;;;4913554;29;20108;-81
2022/07/25 09:17:19;;;;;;;10.05;5.82;;;;;;;;;;4916075;29;20028;-82
2022/07/25 09:19:52;;;;;;;6.43;5.38;;;;;;;;;;4916027;29;20055;-83
2022/07/25 09:22:18;;;;;;;5.80;4.70;;;870.50;1587.20;;;;;;4919084;29;20032;-83
2022/07/25 09:24:44;;;;;;;10.48;9.35;;;870.40;1561.60;;;;;;4934980;29;20056;-81
2022/07/25 09:27:11;;;;;;;7.65;6.03;;;845.70;1612.80;;;;;;4934739;29;20039;-82
2022/07/25 09:29:39;;;;;;;11.45;9.90;;;870.50;1587.20;;;;;;4934594;29;20479;-80
2022/07/25 09:32:20;;;;;;;8.93;6.57;;;870.60;1587.20;;;;;;4934938;29;20084;-79
2022/07/25 09:34:47;;;;;;;8.18;7.38;;;870.90;1510.40;;;;;;4934943;29;20039;-81
2022/07/25 09:37:16;;;;;;;18.42;8.45;;;870.90;1536.00;;;;;;4934850;29;20032;-81
2022/07/25 09:39:42;;;;;;;14.05;6.78;;;;;;;;;;4934804;29;20032;-82
2022/07/25 09:42:21;;;;;;;10.18;5.88;;;871.10;1510.40;;;;;;4919034;29;20366;-82
2022/07/25 09:45:02;;;;;;;7.07;5.70;;;870.90;1536.00;;;;;;4918614;29;20048;-81
2022/07/25 09:47:29;;;;;;;7.03;4.57;;;871.20;1510.40;;;;;;4918634;29;20494;-81
2022/07/25 09:49:59;;;;;;;5.68;4.57;;;871.20;1459.20;;;;;;4919977;29;20084;-79
2022/07/25 09:52:24;;;;;;;7.00;4.88;;;871.30;1459.20;;;;;;4951138;28;20084;-82
2022/07/25 09:54:51;;;;;;;8.70;5.20;;;871.30;1484.80;;;;;;4958624;28;20024;-82
2022/07/25 09:57:17;;;;;;;7.22;4.57;;;896.00;1484.80;;;;;;4942322;28;20040;-82
2022/07/25 09:59:43;;;;;;;8.23;4.20;;;896.10;1459.20;;;;;;4937397;29;20438;-81
2022/07/25 10:02:15;;;;;;;7.93;4.55;;;;;;;;;;4934907;29;20087;-80
2022/07/25 10:05:15;;;;;;;6.55;4.15;;;896.30;1408.00;;;;;;4918470;29;20597;-82
2022/07/25 10:07:46;;;;;;;6.03;4.55;;;896.50;1408.00;;;;;;4928301;29;20506;-82
2022/07/25 10:10:26;;;;;;;39.08;7.10;;;896.60;1433.60;;;;;;4934302;29;20028;-82
2022/07/25 10:13:10;;;;;;;10.52;5.05;;;896.50;1408.00;;;;;;4934489;29;20036;-87
2022/07/25 10:15:43;;;;;;;7.13;4.35;;;896.60;1382.40;;;;;;4934548;29;20084;-83
2022/07/25 10:18:09;;;;;;;6.57;5.25;;;896.70;1382.40;;;;;;4919812;29;20048;-82
2022/07/25 10:20:35;;;;;;;10.07;7.53;;;896.60;1408.00;;;;;;4934332;29;20466;-80
2022/07/25 10:23:01;;;;;;;7.32;6.15;;;896.80;1433.60;;;;;;4933901;29;20037;-79
2022/07/25 10:25:27;;;;;;;9.15;7.95;;;896.90;1433.60;;;;;;4918885;29;20127;-82
2022/07/25 10:27:59;;;;;;;10.73;8.18;;;;;;;;;;4934276;29;20035;-80
2022/07/25 10:30:38;;;;;;;8.07;7.18;;;922.40;1433.60;;;;;;4918244;29;20051;-82
2022/07/25 10:33:14;;;;;;;7.70;6.90;;;922.00;1433.60;;;;;;4934088;29;20043;-83
2022/07/25 10:35:40;;;;;;;9.63;6.90;;;921.80;1408.00;;;;;;4933849;29;20062;-81
2022/07/25 10:38:07;;;;;;;77.07;14.13;;;896.90;1408.00;;;;;;4934076;29;20070;-81
2022/07/25 10:40:35;;;;;;;12.93;6.15;;;922.00;1433.60;;;;;;4933661;29;20028;-80
2022/07/25 10:43:04;;;;;;;21.63;8.30;;;896.90;1408.00;;;;;;4933606;29;20024;-80
2022/07/25 10:45:58;;;;;;;33.30;9.85;;;896.90;1408.00;;;;;;4917633;29;20047;-81
2022/07/25 10:48:26;;;;;;;16.45;7.65;;;921.70;1459.20;;;;;;4933897;29;20358;-81
2022/07/25 10:51:09;;;;;;;13.77;8.02;;;921.90;1433.60;;;;;;4933422;29;20035;-83
2022/07/25 10:53:43;;;;;;;10.23;6.50;;;922.10;1433.60;;;;;;4932838;29;20060;-82
2022/07/25 10:56:11;;;;;;;7.85;5.40;;;922.40;1433.60;;;;;;4918131;29;20084;-81
2022/07/25 10:58:56;;;;;;;6.93;4.82;;;922.30;1382.40;;;;;;4923841;29;20051;-84
2022/07/25 11:01:29;;;;;;;11.45;4.63;;;922.50;1382.40;;;;;;4934950;29;20120;-78
2022/07/25 11:04:04;;;;;;;14.73;12.35;;;947.20;1408.00;;;;;;4918801;29;20024;-82
2022/07/25 11:06:33;;;;;;;7.65;6.85;;;947.40;1356.80;;;;;;4930287;29;20052;-80
2022/07/25 11:09:00;;;;;;;6.63;5.55;;;947.60;1356.80;;;;;;4932154;29;20031;-80
2022/07/25 11:11:37;;;;;;;7.65;4.65;;;947.70;1356.80;;;;;;4931909;29;20039;-79
2022/07/25 11:14:04;;;;;;;5.72;4.65;;;947.40;1356.80;;;;;;4932937;29;20036;-80
2022/07/25 11:16:30;;;;;;;7.28;4.70;;;947.20;1331.20;;;;;;4932867;29;20032;-80
2022/07/25 11:18:56;;;;;;;11.05;4.43;;;947.30;1331.20;;;;;;4931728;29;20032;-81
2022/07/25 11:21:22;;;;;;;7.10;4.32;;;922.40;1331.20;;;;;;4931868;29;20080;-80
2022/07/25 11:23:50;;;;;;;6.55;4.47;;;947.20;1331.20;;;;;;4916642;29;20571;-79
2022/07/25 11:26:17;;;;;;;6.20;4.28;;;947.70;1331.20;;;;;;4931866;29;20024;-80
2022/07/25 11:28:45;;;;;;;5.75;4.60;;;973.20;1305.60;;;;;;4917624;29;20024;-80
2022/07/25 11:31:13;;;;;;;9.60;4.55;;;948.10;1331.20;;;;;;4932162;29;20118;-79
2022/07/25 11:33:40;;;;;;;6.28;3.97;;;973.00;1331.20;;;;;;4932506;29;20545;-81
2022/07/25 11:36:07;;;;;;;4.82;4.10;;;973.10;1331.20;;;;;;4917886;29;20075;-82
2022/07/25 11:38:34;;;;;;;5.88;4.32;;;973.20;1331.20;;;;;;4932023;29;20036;-80
2022/07/25 11:41:00;;;;;;;4.85;4.10;;;973.00;1280.00;;;;;;4932441;29;20079;-79
2022/07/25 11:43:26;;;;;;;6.97;4.10;;;947.80;1280.00;;;;;;4932362;29;20056;-82
2022/07/25 11:45:57;;;;;;;8.02;4.03;;;973.00;1305.60;;;;;;4932004;29;20103;-82
2022/07/25 11:48:30;;;;;;;5.40;4.22;;;973.10;1280.00;;;;;;4932019;29;20036;-80
2022/07/25 11:50:56;;;;;;;5.07;3.95;;;973.20;1254.40;;;;;;4932274;29;20043;-81
2022/07/25 11:53:22;;;;;;;5.00;4.00;;;973.20;1305.60;;;;;;4932015;29;20032;-79
2022/07/25 11:55:47;;;;;;;4.65;3.83;;;973.50;1280.00;;;;;;4932169;29;20036;-81
2022/07/25 11:58:16;;;;;;;5.13;3.92;;;973.60;1280.00;;;;;;4932094;29;20102;-81
2022/07/25 12:00:47;;;;;;;5.80;3.75;;;973.70;1254.40;;;;;;4931880;29;20032;-78
2022/07/25 12:03:19;;;;;;;7.43;5.43;;;973.60;1203.20;;;;;;4917588;29;20032;-81
2022/07/25 12:05:46;;;;;;;6.32;5.70;;;973.60;1203.20;;;;;;4932192;29;20320;-80
2022/07/25 12:08:21;;;;;;;6.85;4.45;;;973.70;1228.80;;;;;;4932243;29;20032;-86
2022/07/25 12:10:50;;;;;;;8.88;4.93;;;973.70;1177.60;;;;;;4932464;29;20028;-85
2022/07/25 12:13:28;;;;;;;12.95;5.68;;;998.40;1228.80;;;;;;4932881;29;20430;-87
2022/07/25 12:15:58;;;;;;;7.07;4.35;;;998.50;1228.80;;;;;;4932662;29;20024;-85
2022/07/25 12:18:24;;;;;;;5.07;3.85;;;998.40;1228.80;;;;;;4931822;29;20032;-80
2022/07/25 12:20:52;;;;;;;5.18;3.78;;;973.60;1254.40;;;;;;4916439;29;20466;-80
2022/07/25 12:23:20;;;;;;;6.90;4.45;;;973.70;1203.20;;;;;;4916944;29;20482;-80
2022/07/25 12:25:46;;;;;;;5.95;3.60;;;973.60;1228.80;;;;;;4931675;29;20039;-78
2022/07/25 12:28:12;;;;;;;7.78;4.15;;;998.50;1254.40;;;;;;4931590;29;20348;-79
2022/07/25 12:30:40;;;;;;;4.80;3.67;;;998.80;1254.40;;;;;;4919016;29;20036;-79
2022/07/25 12:33:06;;;;;;;5.45;3.90;;;999.10;1228.80;;;;;;4934372;29;20064;-79
2022/07/25 12:35:32;;;;;;;5.03;3.88;;;999.10;1203.20;;;;;;4934924;29;20448;-78
2022/07/25 12:37:59;;;;;;;4.25;3.50;;;999.10;1228.80;;;;;;4935586;29;20036;-81
2022/07/25 12:40:25;;;;;;;4.57;3.55;;;999.20;1254.40;;;;;;4935511;29;20126;-79
2022/07/25 12:42:51;;;;;;;5.10;3.50;;;999.20;1203.20;;;;;;4935214;29;20131;-78
2022/07/25 12:45:16;;;;;;;4.85;3.60;;;999.30;1228.80;;;;;;4935215;29;20083;-79
2022/07/25 12:47:47;;;;;;;4.80;3.47;;;998.80;1177.60;;;;;;4920494;29;20461;-79
2022/07/25 12:50:14;;;;;;;6.57;3.50;;;999.10;1203.20;;;;;;4934974;29;20127;-79
2022/07/25 12:52:41;;;;;;;5.20;3.45;;;999.20;1203.20;;;;;;4920732;29;20040;-78
2022/07/25 12:55:09;;;;;;;6.65;3.55;;;1024.00;1203.20;;;;;;4934927;29;20028;-79
2022/07/25 12:57:35;;;;;;;5.63;4.07;;;1024.10;1177.60;;;;;;4919439;29;20028;-78
2022/07/25 13:00:03;;;;;;;6.82;3.40;;;1024.20;1177.60;;;;;;4920881;29;20024;-78
2022/07/25 13:02:29;;;;;;;4.38;3.22;;;1024.00;1177.60;;;;;;4934804;29;20036;-78
2022/07/25 13:04:55;;;;;;;6.57;3.47;;;1024.10;1177.60;;;;;;4920468;29;20043;-79
2022/07/25 13:07:21;;;;;;;4.28;3.10;;;1024.20;1177.60;;;;;;4934772;29;20028;-78
2022/07/25 13:09:46;;;;;;;6.13;3.50;;;1024.20;1152.00;;;;;;4935031;29;20191;-78
2022/07/25 13:12:12;;;;;;;4.70;3.47;;;1024.50;1152.00;;;;;;4920279;29;20513;-79
2022/07/25 13:14:38;;;;;;;5.50;3.30;;;999.10;1152.00;;;;;;4920220;29;20034;-78
2022/07/25 13:17:04;;;;;;;5.68;3.60;;;998.90;1177.60;;;;;;4918882;29;20032;-77
2022/07/25 13:19:30;;;;;;;4.05;3.35;;;998.80;1152.00;;;;;;4934942;29;20039;-78
2022/07/25 13:21:56;;;;;;;5.45;3.78;;;999.20;1177.60;;;;;;4934624;29;20493;-79
2022/07/25 13:24:22;;;;;;;7.60;4.30;;;1024.20;1177.60;;;;;;4934567;29;20035;-78
2022/07/25 13:26:48;;;;;;;6.70;3.88;;;1024.40;1152.00;;;;;;4934513;29;20119;-78
2022/07/25 13:29:13;;;;;;;6.13;3.45;;;1024.30;1152.00;;;;;;4934710;29;20116;-79
2022/07/25 13:31:40;;;;;;;5.43;3.47;;;1024.60;1152.00;;;;;;4919696;29;20151;-79
2022/07/25 13:34:07;;;;;;;5.38;4.05;;;1024.60;1152.00;;;;;;4934289;29;20029;-78
2022/07/25 13:36:35;;;;;;;6.35;3.80;;;1024.60;1152.00;;;;;;4919969;29;20533;-78
2022/07/25 13:39:01;;;;;;;5.45;4.30;;;1024.40;1152.00;;;;;;4919683;29;20067;-79
2022/07/25 13:41:27;;;;;;;7.47;3.97;;;1024.40;1177.60;;;;;;4933291;29;20059;-79
2022/07/25 13:43:53;;;;;;;7.50;4.22;;;1024.00;1152.00;;;;;;4934468;29;20393;-78
2022/07/25 13:46:19;;;;;;;5.15;3.63;;;1024.20;1203.20;;;;;;4934088;29;20146;-80
2022/07/25 13:48:45;;;;;;;5.57;4.68;;;1024.10;1177.60;;;;;;4919491;29;20028;-79
2022/07/25 13:51:11;;;;;;;7.20;4.10;;;1024.30;1177.60;;;;;;4934290;29;20028;-79
2022/07/25 13:53:37;;;;;;;6.53;4.10;;;1024.30;1152.00;;;;;;4919979;29;20035;-79
2022/07/25 13:56:03;;;;;;;5.60;4.03;;;1024.10;1177.60;;;;;;4933672;29;20039;-80
2022/07/25 13:58:30;;;;;;;6.60;4.20;;;1024.40;1152.00;;;;;;4934215;29;20054;-78
2022/07/25 14:00:56;;;;;;;4.30;3.45;;;1024.40;1152.00;;;;;;4934184;29;20028;-79
2022/07/25 14:03:22;;;;;;;4.78;3.85;;;1024.20;1177.60;;;;;;4919532;29;20032;-78
2022/07/25 14:05:48;;;;;;;4.50;3.35;;;1024.50;1152.00;;;;;;4933966;29;20390;-78
2022/07/25 14:08:13;;;;;;;4.93;3.72;;;1024.90;1177.60;;;;;;4933765;29;20036;-78
2022/07/25 14:10:39;;;;;;;6.00;3.90;;;1049.60;1203.20;;;;;;4933664;29;20029;-79
2022/07/25 14:13:05;;;;;;;6.05;3.40;;;1024.60;1152.00;;;;;;4933863;29;20040;-79
2022/07/25 14:15:31;;;;;;;6.15;4.35;;;1024.70;1152.00;;;;;;4933926;29;20466;-79
2022/07/25 14:17:57;;;;;;;4.70;4.00;;;1024.60;1126.40;;;;;;4933742;29;20497;-79
2022/07/25 14:20:26;;;;;;;6.25;4.10;;;1024.40;1152.00;;;;;;4942367;29;20024;-82
2022/07/25 14:22:54;;;;;;;9.65;4.63;;;1024.20;1177.60;;;;;;4958214;29;20016;-80
2022/07/25 14:25:34;;;;;;;7.65;4.32;;;1024.30;1203.20;;;;;;4940820;29;20032;-83
2022/07/25 14:28:00;;;;;;;8.20;4.60;;;1024.20;1177.60;;;;;;4937054;29;20160;-78
2022/07/25 14:30:26;;;;;;;5.75;3.95;;;1024.20;1152.00;;;;;;4934409;29;20115;-79
2022/07/25 14:32:52;;;;;;;5.75;4.70;;;998.90;1177.60;;;;;;4933434;29;20032;-82
2022/07/25 14:35:19;;;;;;;10.38;9.15;;;998.80;1203.20;;;;;;4917667;29;20028;-78
2022/07/25 14:37:46;;;;;;;8.93;5.18;;;999.30;1203.20;;;;;;4933249;29;20378;-80
2022/07/25 14:40:13;;;;;;;7.15;4.47;;;1024.10;1203.20;;;;;;4918877;29;20028;-80
2022/07/25 14:42:40;;;;;;;5.43;4.20;;;1024.30;1177.60;;;;;;4933449;29;20144;-79
2022/07/25 14:45:07;;;;;;;9.15;4.25;;;1024.00;1177.60;;;;;;4932902;29;20418;-81
2022/07/25 14:47:33;;;;;;;6.18;4.88;;;1024.10;1177.60;;;;;;4917484;29;20036;-77
2022/07/25 14:49:58;;;;;;;4.55;3.85;;;1024.10;1177.60;;;;;;4918731;29;20029;-78
2022/07/25 14:52:24;;;;;;;7.18;4.00;;;1024.30;1152.00;;;;;;4932823;29;20371;-80
2022/07/25 14:54:50;;;;;;;6.70;4.05;;;999.20;1177.60;;;;;;4918250;29;20024;-78
2022/07/25 14:57:16;;;;;;;5.88;4.53;;;999.10;1177.60;;;;;;4932965;29;20060;-78
2022/07/25 14:59:42;;;;;;;5.20;3.90;;;999.30;1177.60;;;;;;4932472;29;20091;-78
2022/07/25 15:02:09;;;;;;;7.70;4.22;;;999.30;1152.00;;;;;;4933024;29;20036;-78
2022/07/25 15:04:35;;;;;;;5.93;4.10;;;999.00;1177.60;;;;;;4932618;29;20123;-79
2022/07/25 15:07:01;;;;;;;4.80;4.00;;;999.30;1177.60;;;;;;4932663;29;20059;-79
2022/07/25 15:09:27;;;;;;;6.50;4.25;;;1024.20;1177.60;;;;;;4918368;29;20032;-78
2022/07/25 15:11:53;;;;;;;5.53;4.13;;;1024.30;1152.00;;;;;;4932522;29;20095;-79
2022/07/25 15:14:18;;;;;;;5.47;3.88;;;1024.40;1177.60;;;;;;4918363;29;20024;-78
2022/07/25 15:16:44;;;;;;;6.97;4.22;;;1024.40;1152.00;;;;;;4918036;29;20492;-78
2022/07/25 15:19:10;;;;;;;4.88;4.28;;;1024.20;1152.00;;;;;;4917722;29;20035;-79
2022/07/25 15:21:37;;;;;;;5.65;4.10;;;1024.20;1177.60;;;;;;4918201;29;20386;-79
2022/07/25 15:24:03;;;;;;;6.40;4.18;;;1024.00;1177.60;;;;;;4917820;29;20514;-79
2022/07/25 15:26:31;;;;;;;4.80;3.78;;;999.20;1177.60;;;;;;4916643;29;20032;-79
2022/07/25 15:28:57;;;;;;;10.20;3.78;;;1024.10;1152.00;;;;;;4932749;29;20115;-78
2022/07/25 15:31:24;;;;;;;6.15;4.38;;;999.20;1152.00;;;;;;4932392;29;20450;-79
2022/07/25 15:33:51;;;;;;;4.70;3.70;;;1024.10;1152.00;;;;;;4932287;29;20052;-80
2022/07/25 15:36:18;;;;;;;5.18;4.10;;;1024.00;1152.00;;;;;;4918082;29;20039;-80
2022/07/25 15:38:44;;;;;;;7.90;4.00;;;1024.00;1152.00;;;;;;4917884;29;20051;-79
2022/07/25 15:41:11;;;;;;;7.85;3.72;;;999.20;1152.00;;;;;;4932278;29;20373;-79
2022/07/25 15:43:38;;;;;;;6.07;4.30;;;999.10;1177.60;;;;;;4917902;29;20510;-79
2022/07/25 15:46:04;;;;;;;7.05;3.72;;;999.10;1152.00;;;;;;4931945;29;20435;-79
2022/07/25 15:48:30;;;;;;;5.93;4.30;;;998.50;1177.60;;;;;;4931934;29;20036;-82
2022/07/25 15:50:57;;;;;;;5.95;4.05;;;973.60;1177.60;;;;;;4932331;29;20098;-79
2022/07/25 15:53:24;;;;;;;5.28;3.67;;;973.50;1177.60;;;;;;4917269;29;20386;-79
2022/07/25 15:55:50;;;;;;;7.68;3.85;;;973.30;1177.60;;;;;;4916178;29;20032;-79
2022/07/25 15:58:16;;;;;;;5.80;3.97;;;973.40;1203.20;;;;;;4917559;29;20111;-78
2022/07/25 16:00:42;;;;;;;6.00;3.90;;;973.20;1177.60;;;;;;4931930;29;20115;-78
2022/07/25 16:03:08;;;;;;;6.57;4.05;;;973.20;1177.60;;;;;;4916457;29;20544;-78
2022/07/25 16:05:35;;;;;;;4.13;3.15;;;973.00;1203.20;;;;;;4931645;29;20028;-77
2022/07/25 16:08:02;;;;;;;5.28;3.95;;;948.10;1203.20;;;;;;4931896;29;20123;-77
2022/07/25 16:10:29;;;;;;;6.50;3.97;;;948.00;1177.60;;;;;;4932066;29;20039;-78
2022/07/25 16:12:55;;;;;;;7.57;4.22;;;947.50;1203.20;;;;;;4931882;29;20037;-78
2022/07/25 16:15:21;;;;;;;6.50;3.83;;;947.30;1228.80;;;;;;4915579;29;20044;-78
2022/07/25 16:17:49;;;;;;;6.88;3.80;;;947.20;1203.20;;;;;;4932072;29;20051;-78
2022/07/25 16:20:15;;;;;;;5.75;4.80;;;922.50;1228.80;;;;;;4917477;29;20028;-78
2022/07/25 16:22:41;;;;;;;6.97;3.42;;;922.40;1228.80;;;;;;4931606;29;20032;-78
2022/07/25 16:25:07;;;;;;;5.18;3.67;;;922.20;1254.40;;;;;;4916060;29;20390;-77
2022/07/25 16:27:33;;;;;;;7.40;3.75;;;921.90;1254.40;;;;;;4931917;29;20044;-78
2022/07/25 16:29:59;;;;;;;4.78;3.75;;;921.90;1254.40;;;;;;4917247;29;20039;-78
2022/07/25 16:32:25;;;;;;;6.07;3.97;;;921.70;1254.40;;;;;;4915969;29;20123;-78
2022/07/25 16:34:52;;;;;;;8.52;3.80;;;921.60;1305.60;;;;;;4931776;29;20378;-78
2022/07/25 16:37:19;;;;;;;5.35;3.78;;;896.90;1280.00;;;;;;4915660;29;20032;-78
2022/07/25 16:39:44;;;;;;;5.43;3.88;;;896.80;1254.40;;;;;;4931789;29;20068;-78
2022/07/25 16:42:10;;;;;;;6.68;3.63;;;896.60;1254.40;;;;;;4931700;29;20066;-78
2022/07/25 16:44:36;;;;;;;6.18;4.70;;;896.50;1280.00;;;;;;4915366;29;20112;-78
2022/07/25 16:47:02;;;;;;;6.53;4.05;;;896.40;1280.00;;;;;;4915670;29;20025;-78
2022/07/25 16:49:28;;;;;;;6.65;4.20;;;896.40;1280.00;;;;;;4931728;29;20028;-78
2022/07/25 16:51:54;;;;;;;6.78;4.30;;;896.20;1305.60;;;;;;4916417;29;20112;-77
2022/07/25 16:54:19;;;;;;;5.65;3.80;;;871.30;1331.20;;;;;;4917102;29;20590;-78
2022/07/25 16:56:45;;;;;;;12.13;4.05;;;871.30;1305.60;;;;;;4931320;29;20032;-77
2022/07/25 16:59:11;;;;;;;7.85;4.18;;;871.20;1305.60;;;;;;4931728;29;20032;-78
2022/07/25 17:01:37;;;;;;;5.47;4.25;;;871.10;1356.80;;;;;;4931473;29;20036;-78
2022/07/25 17:04:03;;;;;;;5.25;3.95;;;871.00;1382.40;;;;;;4915861;29;20079;-78
2022/07/25 17:06:30;;;;;;;7.15;4.43;;;870.90;1382.40;;;;;;4931456;29;20140;-78
2022/07/25 17:08:57;;;;;;;5.57;4.55;;;870.60;1408.00;;;;;;4916351;29;20043;-78
2022/07/25 17:11:23;;;;;;;5.75;4.13;;;870.40;1408.00;;;;;;4916559;29;20036;-77
2022/07/25 17:13:49;;;;;;;6.47;4.63;;;845.70;1433.60;;;;;;4916536;29;20055;-78
2022/07/25 17:16:15;;;;;;;5.53;4.05;;;845.50;1433.60;;;;;;4916745;29;20047;-78
2022/07/25 17:18:40;;;;;;;7.18;4.38;;;845.30;1433.60;;;;;;4920357;29;20111;-78
2022/07/25 17:21:08;;;;;;;8.05;4.72;;;845.20;1459.20;;;;;;4920276;29;20521;-78
2022/07/25 17:23:34;;;;;;;7.57;4.53;;;845.20;1484.80;;;;;;4918928;29;20024;-78
2022/07/25 17:26:00;;;;;;;7.20;4.72;;;845.10;1484.80;;;;;;4918401;29;20028;-78
2022/07/25 17:28:26;;;;;;;5.60;4.40;;;845.10;1484.80;;;;;;4934325;29;20028;-78
2022/07/25 17:30:52;;;;;;;5.32;4.03;;;844.90;1484.80;;;;;;4918578;29;20100;-78
2022/07/25 17:33:18;;;;;;;5.90;4.45;;;820.00;1459.20;;;;;;4919411;29;20040;-78
2022/07/25 17:35:44;;;;;;;7.40;4.38;;;820.00;1459.20;;;;;;4918645;29;20032;-78
2022/07/25 17:38:13;;;;;;;6.15;4.78;;;820.00;1459.20;;;;;;4918482;29;20028;-78
2022/07/25 17:40:39;;;;;;;6.70;5.00;;;819.80;1484.80;;;;;;4934040;29;20043;-78